Time;durP1;ratioP1;P1;durP2;ratioP2;P2;SDS_P1;SDS_P2;PMS_P1;PMS_P2;Temp;Humidity;BMP_temperature;BMP_pressure;BME280_temperature;BME280_humidity;BME280_pressure;Samples;Min_cycle;Max_cycle;Signal;HPM_P1;HPM_P2
2022/07/20 00:01:13;;;;;;;2.35;1.83;;;;;;;30.09;42.93;99157.53;5101981;28;20036;-57
2022/07/20 00:03:40;;;;;;;2.63;2.00;;;;;;;30.07;43.22;99154.31;5088238;28;20052;-62
2022/07/20 00:06:06;;;;;;;2.60;2.17;;;;;;;30.09;43.53;99158.34;5088636;28;20067;-62
2022/07/20 00:11:21;;;;;;;2.42;1.98;;;;;;;30.02;43.53;99164.16;5099146;28;20065;-62
2022/07/20 00:13:49;;;;;;;2.30;1.80;;;;;;;30.04;43.64;99166.50;5096583;28;20051;-62
2022/07/20 00:16:14;;;;;;;2.35;2.03;;;;;;;30.02;43.10;99163.34;5098150;28;20048;-57
2022/07/20 00:18:40;;;;;;;2.30;2.00;;;;;;;30.04;43.42;99172.94;5091211;28;20059;-57
2022/07/20 00:21:05;;;;;;;2.20;1.83;;;;;;;30.07;43.27;99180.50;5101676;28;20526;-57
2022/07/20 00:23:31;;;;;;;2.40;1.83;;;;;;;30.04;43.66;99175.75;5096217;28;20071;-57
2022/07/20 00:25:56;;;;;;;2.80;2.08;;;;;;;30.05;43.36;99168.09;5087674;28;20055;-62
2022/07/20 00:28:21;;;;;;;2.45;1.98;;;;;;;30.03;43.67;99168.53;5104511;28;20473;-57
2022/07/20 00:30:47;;;;;;;2.33;1.90;;;;;;;30.03;43.17;99173.38;5095553;28;20127;-57
2022/07/20 00:33:12;;;;;;;2.33;1.92;;;;;;;30.04;43.74;99175.75;5091345;28;20117;-57
2022/07/20 00:35:38;;;;;;;2.25;1.70;;;;;;;30.02;43.53;99178.25;5100782;28;20165;-57
2022/07/20 00:38:03;;;;;;;2.35;1.80;;;;;;;30.04;43.26;99175.75;5100595;28;20085;-57
2022/07/20 00:40:29;;;;;;;2.22;1.73;;;;;;;30.01;43.62;99179.47;5101912;28;20514;-57
2022/07/20 00:42:54;;;;;;;2.25;1.70;;;;;;;30.02;43.61;99178.25;5087308;28;20044;-56
2022/07/20 00:45:20;;;;;;;2.13;1.63;;;;;;;30.04;43.30;99174.97;5092528;28;20484;-56
2022/07/20 00:47:47;;;;;;;4.07;1.80;;;;;;;30.03;43.35;99170.56;5103159;28;20137;-56
2022/07/20 00:50:14;;;;;;;2.47;2.00;;;;;;;30.02;43.52;99183.09;5100326;28;20393;-62
2022/07/20 00:52:42;;;;;;;2.40;1.80;;;;;;;30.00;43.64;99177.88;5096702;28;20037;-56
2022/07/20 00:55:07;;;;;;;2.50;2.03;;;;;;;30.01;43.47;99179.47;5078149;28;20040;-56
2022/07/20 00:57:33;;;;;;;2.40;1.80;;;;;;;30.01;43.67;99182.31;5097673;28;20124;-57
2022/07/20 00:59:59;;;;;;;2.50;2.05;;;;;;;30.03;43.71;99187.50;5102129;28;21223;-56
2022/07/20 01:02:25;;;;;;;2.20;1.90;;;;;;;30.03;43.29;99187.50;5075847;28;20446;-56
2022/07/20 01:04:51;;;;;;;2.42;1.83;;;;;;;30.00;43.33;99194.78;5094578;28;20042;-62
2022/07/20 01:07:17;;;;;;;2.05;1.70;;;;;;;30.00;43.63;99191.19;5092612;28;20037;-57
2022/07/20 01:09:44;;;;;;;2.30;1.90;;;;;;;30.02;43.77;99197.19;5091369;28;20044;-57
2022/07/20 01:12:10;;;;;;;2.40;1.90;;;;;;;29.94;43.49;99199.41;5096814;28;20457;-56
2022/07/20 01:14:36;;;;;;;2.33;1.90;;;;;;;29.93;43.87;99203.44;5097032;28;20043;-57
2022/07/20 01:17:01;;;;;;;2.17;1.80;;;;;;;29.95;44.04;99194.56;5104867;28;20035;-57
2022/07/20 01:19:27;;;;;;;2.25;1.70;;;;;;;29.99;43.53;99198.84;5097918;28;20425;-57
2022/07/20 01:21:53;;;;;;;2.20;1.92;;;;;;;29.96;43.50;99196.16;5108301;28;20130;-61
2022/07/20 01:24:19;;;;;;;2.40;1.98;;;;;;;29.92;43.49;99196.22;5097632;28;20043;-61
2022/07/20 01:26:45;;;;;;;2.40;2.00;;;;;;;29.91;43.59;99189.00;5106009;28;20040;-56
2022/07/20 01:29:13;;;;;;;2.22;1.73;;;;;;;29.94;43.42;99190.16;5098898;28;20071;-56
2022/07/20 01:31:40;;;;;;;2.38;1.85;;;;;;;29.95;43.81;99195.34;5090952;28;20135;-62
2022/07/20 01:34:07;;;;;;;2.13;1.73;;;;;;;29.91;43.63;99197.47;5092868;28;20044;-63
2022/07/20 01:36:32;;;;;;;2.40;1.83;;;;;;;29.92;44.11;99203.91;5097549;28;20042;-62
2022/07/20 01:38:58;;;;;;;2.30;1.90;;;;;;;29.88;43.68;99201.97;5095830;28;20047;-62
2022/07/20 01:41:24;;;;;;;2.10;1.60;;;;;;;29.86;43.82;99204.44;5095394;28;20124;-57
2022/07/20 01:43:50;;;;;;;2.08;1.77;;;;;;;29.84;43.79;99198.44;5103499;28;20055;-57
2022/07/20 01:46:16;;;;;;;2.53;2.10;;;;;;;29.85;44.08;99199.22;5092179;28;20036;-62
2022/07/20 01:48:42;;;;;;;2.30;1.83;;;;;;;29.86;43.85;99215.72;5105088;28;20572;-62
2022/07/20 01:51:07;;;;;;;2.40;1.75;;;;;;;29.87;43.99;99208.06;5103192;28;20043;-57
2022/07/20 01:53:34;;;;;;;2.90;2.00;;;;;;;29.85;43.85;99214.13;5101870;28;20036;-56
2022/07/20 01:56:00;;;;;;;2.33;1.70;;;;;;;29.85;43.94;99213.31;5097607;28;20051;-57
2022/07/20 01:58:25;;;;;;;2.20;1.70;;;;;;;29.84;44.25;99215.34;5098577;28;20045;-57
2022/07/20 02:00:51;;;;;;;2.15;1.45;;;;;;;29.81;44.21;99204.19;5105178;28;20047;-57
2022/07/20 02:03:17;;;;;;;2.20;1.75;;;;;;;29.83;44.32;99215.81;5096508;28;20411;-57
2022/07/20 02:05:43;;;;;;;2.53;2.03;;;;;;;29.86;43.77;99212.09;5101566;28;20526;-57
2022/07/20 02:08:09;;;;;;;2.00;1.63;;;;;;;29.86;44.06;99210.09;5097729;28;20063;-62
2022/07/20 02:10:35;;;;;;;2.10;1.60;;;;;;;29.84;43.90;99209.72;5099308;28;20059;-62
2022/07/20 02:13:01;;;;;;;2.28;1.90;;;;;;;29.85;44.28;99218.97;5077615;28;20504;-62
2022/07/20 02:18:12;;;;;;;2.20;1.75;;;;;;;29.81;43.70;99204.19;5074057;28;20119;-62
2022/07/20 02:20:39;;;;;;;2.00;1.50;;;;;;;29.85;44.05;99196.41;5059839;28;20056;-62
2022/07/20 02:23:07;;;;;;;2.03;1.63;;;;;;;29.84;43.91;99212.53;5071377;28;20040;-57
2022/07/20 02:25:36;;;;;;;2.20;1.60;;;;;;;29.80;44.31;99206.22;5069185;28;20484;-62
2022/07/20 02:28:02;;;;;;;2.20;1.70;;;;;;;29.78;44.04;99203.03;5051038;28;20412;-62
2022/07/20 02:30:28;;;;;;;2.10;1.73;;;;;;;29.76;44.26;99197.03;5076137;28;20036;-63
2022/07/20 02:32:53;;;;;;;2.03;1.70;;;;;;;29.75;44.42;99201.09;5070890;28;20123;-62
2022/07/20 02:35:19;;;;;;;1.98;1.55;;;;;;;29.77;44.41;99200.66;5076955;28;20035;-62
2022/07/20 02:37:44;;;;;;;3.75;1.73;;;;;;;29.78;44.05;99207.88;5076632;28;20503;-62
2022/07/20 02:40:10;;;;;;;2.20;1.60;;;;;;;29.77;44.13;99203.47;5071342;28;20040;-62
2022/07/20 02:42:35;;;;;;;1.95;1.50;;;;;;;29.75;44.09;99209.56;5078448;28;20091;-62
2022/07/20 02:45:01;;;;;;;2.10;1.77;;;;;;;29.73;44.40;99212.03;5073992;28;20099;-57
2022/07/20 02:47:26;;;;;;;2.15;1.70;;;;;;;29.74;44.54;99219.25;5073336;28;20060;-62
2022/07/20 02:49:51;;;;;;;2.03;1.60;;;;;;;29.74;44.29;99224.88;5070689;28;20079;-57
2022/07/20 02:52:17;;;;;;;2.13;1.77;;;;;;;29.70;44.17;99206.47;5083755;28;20048;-57
2022/07/20 02:54:42;;;;;;;2.22;1.60;;;;;;;29.74;44.26;99212.81;5070892;28;20051;-57
2022/07/20 02:57:08;;;;;;;2.22;1.83;;;;;;;29.74;44.07;99218.47;5068838;28;20045;-62
2022/07/20 02:59:33;;;;;;;2.60;2.00;;;;;;;29.72;44.55;99215.28;5069726;28;20070;-57
2022/07/20 03:01:59;;;;;;;1.92;1.60;;;;;;;29.70;44.08;99215.72;5073043;28;20040;-62
2022/07/20 03:04:25;;;;;;;2.30;1.90;;;;;;;29.72;44.65;99221.72;5068903;28;20412;-62
2022/07/20 03:06:50;;;;;;;2.03;1.70;;;;;;;29.70;44.13;99217.75;5068077;28;20115;-62
2022/07/20 03:09:16;;;;;;;2.20;1.80;;;;;;;29.70;44.18;99215.72;5069823;28;20182;-56
2022/07/20 03:11:41;;;;;;;2.17;1.70;;;;;;;29.71;44.40;99230.59;5069048;28;20503;-63
2022/07/20 03:14:07;;;;;;;2.10;1.65;;;;;;;29.71;44.04;99233.41;5073968;28;20071;-56
2022/07/20 03:16:32;;;;;;;2.10;1.70;;;;;;;29.70;44.26;99243.13;5069157;28;20520;-62
2022/07/20 03:18:58;;;;;;;2.45;2.10;;;;;;;29.68;44.48;99245.59;5052194;28;20415;-57
2022/07/20 03:21:25;;;;;;;2.10;1.70;;;;;;;29.64;44.62;99242.06;5079888;28;20384;-58
2022/07/20 03:23:51;;;;;;;2.50;1.63;;;;;;;29.66;44.22;99246.03;5079462;28;20056;-62
2022/07/20 03:26:18;;;;;;;2.03;1.60;;;;;;;29.64;44.63;99237.22;5068778;28;20044;-62
2022/07/20 03:28:44;;;;;;;2.08;1.63;;;;;;;29.68;44.38;99248.41;5068831;28;20067;-62
2022/07/20 03:31:10;;;;;;;2.35;1.80;;;;;;;29.67;44.23;99252.47;5073438;28;20488;-62
2022/07/20 03:33:35;;;;;;;2.40;1.77;;;;;;;29.67;44.53;99252.47;5082351;28;20422;-62
2022/07/20 03:36:00;;;;;;;2.42;1.95;;;;;;;29.62;44.37;99247.34;5071330;28;20068;-62
2022/07/20 03:38:26;;;;;;;2.30;2.00;;;;;;;29.68;44.72;99257.66;5069679;28;20482;-62
2022/07/20 03:40:51;;;;;;;2.00;1.60;;;;;;;29.65;44.36;99258.56;5082549;28;20036;-62
2022/07/20 03:43:17;;;;;;;2.30;1.90;;;;;;;29.64;44.66;99262.56;5068629;28;20052;-57
2022/07/20 03:45:42;;;;;;;2.00;1.80;;;;;;;29.59;44.51;99260.31;5068740;28;20051;-57
2022/07/20 03:48:08;;;;;;;2.25;1.67;;;;;;;29.62;44.41;99258.63;5071031;28;20519;-57
2022/07/20 03:50:33;;;;;;;2.00;1.60;;;;;;;29.62;44.71;99267.88;5078650;28;20063;-62
2022/07/20 03:52:58;;;;;;;2.10;1.60;;;;;;;29.65;44.73;99280.28;5079365;28;20499;-56
2022/07/20 03:55:24;;;;;;;2.15;1.70;;;;;;;29.61;44.82;99277.56;5073108;28;20036;-62
2022/07/20 03:57:49;;;;;;;2.33;1.83;;;;;;;29.63;44.73;99288.38;5069915;28;20070;-58
2022/07/20 04:00:15;;;;;;;2.10;1.80;;;;;;;29.62;44.71;99284.00;5067862;28;20041;-57
2022/07/20 04:02:40;;;;;;;2.22;1.90;;;;;;;29.62;44.73;99287.59;5072464;28;20048;-57
2022/07/20 04:05:06;;;;;;;2.20;1.73;;;;;;;29.59;44.62;99291.31;5071896;28;20074;-57
2022/07/20 04:07:31;;;;;;;2.30;1.83;;;;;;;29.58;44.74;99303.81;5077795;28;20032;-56
2022/07/20 04:09:57;;;;;;;2.28;1.70;;;;;;;29.55;44.53;99302.66;5075640;28;20102;-63
2022/07/20 04:12:24;;;;;;;1.95;1.63;;;;;;;29.56;44.58;99309.88;5071552;28;20036;-62
2022/07/20 04:14:51;;;;;;;2.20;1.70;;;;;;;29.60;44.60;99312.63;5079041;28;20044;-62
2022/07/20 04:17:17;;;;;;;2.30;1.75;;;;;;;29.57;45.02;99317.09;5076923;28;20037;-57
2022/07/20 04:19:43;;;;;;;2.35;1.98;;;;;;;29.58;44.59;99318.72;5076333;28;20503;-62
2022/07/20 04:22:09;;;;;;;2.20;1.80;;;;;;;29.57;44.78;99317.09;5073085;28;20059;-56
2022/07/20 04:24:35;;;;;;;2.30;1.80;;;;;;;29.57;44.57;99325.53;5078219;28;20048;-57
2022/07/20 04:27:00;;;;;;;2.25;1.70;;;;;;;29.58;45.03;99327.16;5072613;28;20055;-62
2022/07/20 04:29:26;;;;;;;2.20;1.70;;;;;;;29.59;44.86;99331.56;5077858;28;20118;-62
2022/07/20 04:31:52;;;;;;;2.38;1.90;;;;;;;29.57;44.89;99328.38;5080215;28;20526;-57
2022/07/20 04:34:17;;;;;;;2.45;1.90;;;;;;;29.59;44.92;99327.94;5074219;28;20045;-57
2022/07/20 04:36:43;;;;;;;2.40;1.90;;;;;;;29.57;44.49;99331.19;5073793;28;20040;-62
2022/07/20 04:39:08;;;;;;;2.22;1.77;;;;;;;29.56;45.07;99326.00;5074972;28;20040;-62
2022/07/20 04:41:34;;;;;;;2.10;1.70;;;;;;;29.59;44.62;99331.56;5079990;28;20036;-57
2022/07/20 04:43:59;;;;;;;2.10;1.75;;;;;;;29.58;45.03;99332.81;5073811;28;20429;-63
2022/07/20 04:46:24;;;;;;;2.10;1.80;;;;;;;29.57;44.87;99331.19;5077895;28;20079;-62
2022/07/20 04:48:50;;;;;;;2.40;1.80;;;;;;;29.55;44.95;99330.84;5078256;28;20041;-62
2022/07/20 04:51:15;;;;;;;2.30;1.90;;;;;;;29.59;44.68;99337.19;5085190;28;20044;-62
2022/07/20 04:53:41;;;;;;;2.00;1.70;;;;;;;29.58;45.06;99329.19;5082815;28;20133;-62
2022/07/20 04:56:07;;;;;;;2.33;1.92;;;;;;;29.61;44.92;99336.75;5072024;28;20067;-56
2022/07/20 04:58:32;;;;;;;2.30;1.90;;;;;;;29.58;44.67;99335.63;5076682;28;20036;-57
2022/07/20 05:00:58;;;;;;;2.10;1.70;;;;;;;29.60;44.75;99335.19;5071321;28;20515;-62
2022/07/20 05:03:24;;;;;;;2.10;1.58;;;;;;;29.57;45.28;99338.84;5083576;28;20036;-57
2022/07/20 05:05:49;;;;;;;2.33;1.80;;;;;;;29.58;45.09;99344.06;5087812;28;20058;-57
2022/07/20 05:08:15;;;;;;;2.50;1.90;;;;;;;29.62;45.28;99340.38;5084220;28;20051;-62
2022/07/20 05:10:40;;;;;;;3.47;1.83;;;;;;;29.62;45.02;99341.16;5070883;28;20051;-62
2022/07/20 05:13:06;;;;;;;2.20;1.70;;;;;;;29.65;44.92;99345.13;5077551;28;20037;-62
2022/07/20 05:15:31;;;;;;;2.30;1.80;;;;;;;29.67;45.43;99345.50;5070715;28;20041;-57
2022/07/20 05:17:57;;;;;;;2.15;1.80;;;;;;;29.69;44.89;99340.22;5072447;28;20052;-57
2022/07/20 05:20:22;;;;;;;2.15;1.60;;;;;;;29.70;45.10;99341.78;5078647;28;20052;-56
2022/07/20 05:22:48;;;;;;;2.40;1.90;;;;;;;29.72;45.30;99342.13;5070854;28;20039;-62
2022/07/20 05:25:13;;;;;;;2.47;1.90;;;;;;;29.76;45.13;99343.66;5084252;28;20550;-57
2022/07/20 05:27:39;;;;;;;2.20;1.67;;;;;;;29.77;44.76;99341.63;5070792;28;20097;-57
2022/07/20 05:30:05;;;;;;;2.10;1.73;;;;;;;29.82;44.64;99346.75;5069934;28;20051;-62
2022/07/20 05:32:30;;;;;;;2.17;1.70;;;;;;;29.84;44.79;99341.47;5078680;28;20046;-57
2022/07/20 05:34:56;;;;;;;2.20;1.80;;;;;;;29.84;44.91;99342.25;5076925;28;20040;-62
2022/07/20 05:37:21;;;;;;;2.05;1.65;;;;;;;29.83;44.91;99343.47;5072102;28;20036;-62
2022/07/20 05:39:46;;;;;;;2.17;1.70;;;;;;;29.83;45.01;99349.13;5070390;28;20127;-59
2022/07/20 05:42:12;;;;;;;2.40;1.90;;;;;;;29.84;45.06;99335.81;5079478;28;20108;-58
2022/07/20 05:44:38;;;;;;;2.60;1.80;;;;;;;29.85;45.60;99345.84;5074568;28;20041;-57
2022/07/20 05:47:06;;;;;;;16.00;2.50;;;;;;;29.85;45.74;99343.03;5082298;28;20400;-57
2022/07/20 05:49:32;;;;;;;22.85;2.97;;;;;;;29.85;45.44;99345.84;5083035;28;20122;-57
2022/07/20 05:51:57;;;;;;;14.43;3.00;;;;;;;29.90;45.41;99353.00;5075068;28;20132;-57
2022/07/20 05:54:23;;;;;;;23.52;2.80;;;;;;;29.90;45.60;99342.53;5073475;28;20039;-63
2022/07/20 05:56:48;;;;;;;14.57;2.70;;;;;;;29.92;45.25;99342.88;5070533;28;20066;-57
2022/07/20 05:59:14;;;;;;;12.57;2.58;;;;;;;29.94;45.53;99345.28;5070019;28;20037;-57
2022/07/20 06:01:43;;;;;;;27.25;2.60;;;;;;;29.95;45.62;99349.69;5070030;28;20048;-57
2022/07/20 06:04:10;;;;;;;9.30;2.72;;;;;;;29.84;44.82;99353.53;5069764;28;20124;-63
2022/07/20 06:06:35;;;;;;;9.90;2.70;;;;;;;29.64;44.28;99349.16;5069893;28;20053;-57
2022/07/20 06:09:00;;;;;;;8.00;2.30;;;;;;;29.42;43.72;99351.63;5070172;28;20033;-57
2022/07/20 06:11:26;;;;;;;9.85;2.53;;;;;;;29.20;42.85;99354.91;5071049;28;20420;-56
2022/07/20 06:13:51;;;;;;;9.23;2.58;;;;;;;28.98;45.13;99340.47;5074153;28;20044;-57
2022/07/20 06:16:16;;;;;;;7.13;2.47;;;;;;;28.91;46.09;99346.25;5076190;28;20043;-63
2022/07/20 06:18:42;;;;;;;6.85;2.20;;;;;;;28.84;46.60;99337.91;5070013;28;20048;-57
2022/07/20 06:21:07;;;;;;;7.38;2.40;;;;;;;28.88;47.16;99343.47;5069719;28;20044;-57
2022/07/20 06:23:33;;;;;;;5.45;2.28;;;;;;;28.92;47.03;99338.59;5069059;28;20049;-63
2022/07/20 06:25:58;;;;;;;5.13;2.38;;;;;;;28.89;45.17;99340.22;5072827;28;20044;-57
2022/07/20 06:28:23;;;;;;;4.00;2.50;;;;;;;28.83;45.58;99336.31;5074445;28;20036;-57
2022/07/20 06:30:50;;;;;;;6.22;2.17;;;;;;;28.77;46.66;99336.03;5070588;28;20040;-56
2022/07/20 06:33:15;;;;;;;7.22;2.70;;;;;;;28.72;47.03;99341.34;5083106;28;20044;-63
2022/07/20 06:35:40;;;;;;;9.50;2.92;;;;;;;28.70;47.29;99332.53;5078162;28;20409;-63
2022/07/20 06:38:06;;;;;;;5.72;2.35;;;;;;;28.71;47.09;99342.56;5071213;28;20037;-63
2022/07/20 06:40:31;;;;;;;3.60;2.25;;;;;;;28.77;45.87;99340.84;5087489;28;20035;-63
2022/07/20 06:42:57;;;;;;;3.63;2.15;;;;;;;28.76;44.30;99340.06;5075114;28;20052;-63
2022/07/20 06:45:22;;;;;;;3.10;2.40;;;;;;;28.63;46.15;99344.72;5074880;28;20117;-62
2022/07/20 06:47:49;;;;;;;6.40;2.30;;;;;;;28.55;47.26;99336.84;5069527;28;20503;-63
2022/07/20 06:50:14;;;;;;;6.10;2.60;;;;;;;28.55;47.40;99336.84;5078609;28;20034;-63
2022/07/20 06:52:40;;;;;;;3.60;2.30;;;;;;;28.60;47.40;99339.97;5080083;28;20810;-58
2022/07/20 06:55:07;;;;;;;4.72;3.20;;;;;;;28.69;46.32;99336.59;5078121;28;20396;-58
2022/07/20 06:57:32;;;;;;;6.05;3.53;;;;;;;28.74;43.85;99344.53;5077210;28;20512;-58
2022/07/20 06:59:57;;;;;;;7.35;4.57;;;;;;;28.71;46.17;99340.56;5077800;28;20069;-58
2022/07/20 07:02:25;;;;;;;7.90;4.78;;;;;;;28.78;46.36;99339.63;5077843;28;20047;-58
2022/07/20 07:04:52;;;;;;;11.27;4.75;;;;;;;28.87;46.29;99334.25;5075386;28;20048;-62
2022/07/20 07:07:17;;;;;;;6.97;4.97;;;;;;;28.86;45.27;99341.06;5081233;28;20569;-58
2022/07/20 07:09:43;;;;;;;7.57;5.65;;;;;;;28.82;45.92;99342.38;5076149;28;20047;-57
2022/07/20 07:12:09;;;;;;;10.30;5.65;;;;;;;28.82;47.29;99343.19;5082400;28;20048;-62
2022/07/20 07:14:35;;;;;;;10.13;5.97;;;;;;;28.87;47.00;99337.06;5083122;28;20043;-58
2022/07/20 07:17:00;;;;;;;8.57;5.72;;;;;;;28.89;45.46;99339.44;5085897;28;20032;-58
2022/07/20 07:19:26;;;;;;;10.73;5.20;;;;;;;28.79;44.85;99325.16;5084387;28;20131;-63
2022/07/20 07:21:51;;;;;;;9.32;5.90;;;;;;;28.80;46.66;99337.19;5082055;28;20063;-57
2022/07/20 07:24:16;;;;;;;8.40;5.40;;;;;;;28.87;47.29;99331.44;5086545;28;20048;-58
2022/07/20 07:26:42;;;;;;;9.65;5.72;;;;;;;28.85;45.47;99325.41;5089162;28;20597;-57
2022/07/20 07:29:08;;;;;;;7.90;5.40;;;;;;;28.82;45.09;99325.50;5083824;28;21468;-57
2022/07/20 07:31:33;;;;;;;11.13;6.35;;;;;;;28.78;46.69;99322.75;5082972;28;20075;-63
2022/07/20 07:34:01;;;;;;;8.98;5.57;;;;;;;28.86;47.05;99321.38;5069404;28;20119;-63
2022/07/20 07:36:26;;;;;;;9.43;5.32;;;;;;;28.85;45.35;99321.81;5082141;28;20044;-63
2022/07/20 07:38:51;;;;;;;8.50;5.78;;;;;;;28.81;45.95;99321.88;5079520;28;20134;-64
2022/07/20 07:41:17;;;;;;;7.00;5.45;;;;;;;28.83;46.42;99322.25;5078595;28;20044;-64
2022/07/20 07:43:42;;;;;;;10.38;5.70;;;;;;;28.88;46.68;99313.31;5072976;28;20058;-64
2022/07/20 07:46:08;;;;;;;7.05;5.30;;;;;;;28.91;45.22;99312.44;5069311;28;20044;-64
2022/07/20 07:48:35;;;;;;;8.18;5.07;;;;;;;28.84;44.38;99314.59;5080867;28;20520;-64
2022/07/20 07:51:01;;;;;;;6.22;5.35;;;;;;;28.84;46.56;99311.78;5076604;28;20538;-56
2022/07/20 07:53:26;;;;;;;9.38;5.50;;;;;;;28.90;46.42;99312.88;5077671;28;20146;-62
2022/07/20 07:55:52;;;;;;;7.38;5.40;;;;;;;28.89;45.13;99309.25;5075860;28;20052;-56
2022/07/20 07:58:18;;;;;;;10.93;5.90;;;;;;;28.93;44.40;99307.19;5077245;28;20199;-56
2022/07/20 08:00:43;;;;;;;8.75;6.22;;;;;;;28.95;46.37;99307.56;5074598;28;20055;-56
2022/07/20 08:03:09;;;;;;;6.70;5.45;;;;;;;29.00;46.25;99307.03;5077204;28;20047;-56
2022/07/20 08:05:35;;;;;;;8.50;5.32;;;;;;;29.02;44.45;99304.59;5071714;28;20055;-63
2022/07/20 08:08:16;;;;;;;8.50;5.95;;;;;;;28.95;44.45;99310.38;5069608;28;20047;-57
2022/07/20 08:10:42;;;;;;;7.13;5.65;;;;;;;28.95;44.25;99316.00;5077860;28;20074;-56
2022/07/20 08:13:08;;;;;;;6.47;5.72;;;;;;;28.90;44.06;99307.22;5075653;28;20532;-56
2022/07/20 08:15:34;;;;;;;9.20;6.07;;;;;;;28.94;46.62;99308.00;5077373;28;20055;-63
2022/07/20 08:18:00;;;;;;;8.35;5.80;;;;;;;28.96;45.00;99305.53;5075286;28;20476;-63
2022/07/20 08:20:26;;;;;;;9.70;5.72;;;;;;;28.88;44.46;99299.22;5077594;28;20036;-62
2022/07/20 08:22:52;;;;;;;8.50;5.10;;;;;;;28.92;45.99;99305.59;5081776;28;20488;-62
2022/07/20 08:25:19;;;;;;;11.07;5.78;;;;;;;29.00;45.11;99301.41;5082846;28;20082;-56
2022/07/20 08:27:44;;;;;;;8.80;5.78;;;;;;;28.97;44.79;99293.84;5080871;28;20117;-56
2022/07/20 08:30:11;;;;;;;10.25;5.28;;;;;;;28.98;43.19;99298.22;5081373;28;20044;-63
2022/07/20 08:32:36;;;;;;;7.15;5.07;;;;;;;28.82;43.57;99300.94;5085555;28;20511;-65
2022/07/20 08:35:02;;;;;;;8.27;4.43;;;;;;;28.78;44.66;99294.59;5080976;28;20098;-65
2022/07/20 08:37:29;;;;;;;6.43;4.20;;;;;;;28.72;44.83;99297.13;5075663;28;20044;-56
2022/07/20 08:39:58;;;;;;;6.68;3.97;;;;;;;28.71;44.72;99295.50;5077652;28;20876;-65
2022/07/20 08:42:26;;;;;;;4.80;4.20;;;;;;;28.74;44.66;99282.63;5065682;28;20049;-65
2022/07/20 08:44:51;;;;;;;5.22;3.95;;;;;;;28.70;43.41;99288.31;5076876;28;20057;-65
2022/07/20 08:47:17;;;;;;;6.75;3.72;;;;;;;28.64;42.05;99278.78;5079143;28;20039;-55
2022/07/20 08:49:50;;;;;;;4.72;3.70;;;;;;;28.52;43.61;99285.06;5079121;28;20135;-56
2022/07/20 08:52:17;;;;;;;5.43;3.55;;;;;;;28.51;44.04;99277.84;5068684;28;20415;-56
2022/07/20 08:54:45;;;;;;;4.85;3.33;;;;;;;28.54;44.02;99284.63;5077527;28;20086;-56
2022/07/20 08:57:17;;;;;;;4.50;3.30;;;;;;;28.62;43.53;99281.22;5080679;28;20527;-65
2022/07/20 08:59:46;;;;;;;3.60;3.10;;;;;;;28.57;41.63;99275.31;5083201;28;20044;-64
2022/07/20 09:02:13;;;;;;;4.10;3.20;;;;;;;28.45;43.60;99283.16;5076601;28;20052;-56
2022/07/20 09:04:59;;;;;;;3.47;2.95;;;;;;;28.47;43.82;99282.72;5073198;28;20076;-55
2022/07/20 09:07:40;;;;;;;3.65;3.10;;;;;;;28.57;44.10;99272.50;5076586;28;20098;-61
2022/07/20 09:10:11;;;;;;;4.90;3.50;;;;;;;28.62;43.73;99275.59;5082199;28;20067;-61
2022/07/20 09:13:00;;;;;;;3.50;3.07;;;;;;;28.60;43.66;99274.44;5080648;28;20053;-61
2022/07/20 09:15:39;;;;;;;3.78;3.17;;;;;;;28.62;44.48;99272.00;5078464;28;20076;-60
2022/07/20 09:18:16;;;;;;;5.80;3.42;;;;;;;28.58;44.78;99274.91;5080480;28;20044;-56
2022/07/20 09:20:48;;;;;;;3.58;3.28;;;;;;;28.69;44.64;99271.84;5082940;28;20079;-56
2022/07/20 09:23:31;;;;;;;3.20;2.90;;;;;;;28.62;43.25;99269.97;5084017;28;20056;-55
2022/07/20 09:26:14;;;;;;;3.35;2.92;;;;;;;28.55;44.87;99264.47;5074375;28;20045;-55
2022/07/20 09:28:48;;;;;;;3.83;3.10;;;;;;;28.54;45.19;99265.72;5080066;28;20113;-62
2022/07/20 09:31:18;;;;;;;3.33;2.90;;;;;;;28.59;45.05;99264.44;5079191;28;20515;-55
2022/07/20 09:33:56;;;;;;;3.50;3.03;;;;;;;28.63;45.08;99267.94;5081655;28;20522;-55
2022/07/20 09:36:24;;;;;;;2.80;2.50;;;;;;;28.68;44.22;99256.19;5077174;28;20989;-56
2022/07/20 09:38:49;;;;;;;3.40;2.70;;;;;;;28.64;42.87;99258.28;5082991;28;20523;-56
2022/07/20 09:41:21;;;;;;;3.72;2.92;;;;;;;28.57;45.03;99249.97;5084007;28;20048;-56
2022/07/20 09:43:47;;;;;;;3.30;2.63;;;;;;;28.54;45.42;99256.47;5081293;28;20099;-62
2022/07/20 09:46:17;;;;;;;3.47;2.83;;;;;;;28.58;45.35;99251.59;5077176;28;20058;-63
2022/07/20 09:48:48;;;;;;;3.00;2.63;;;;;;;28.66;44.75;99253.81;5083069;28;20052;-62
2022/07/20 09:51:34;;;;;;;3.55;2.67;;;;;;;28.59;44.05;99242.72;5084690;28;20051;-56
2022/07/20 09:54:14;;;;;;;3.25;2.75;;;;;;;28.58;45.05;99241.13;5083797;28;20041;-56
2022/07/20 09:56:42;;;;;;;3.10;2.58;;;;;;;28.62;45.15;99233.38;5083525;28;20044;-55
2022/07/20 09:59:13;;;;;;;2.80;2.45;;;;;;;28.65;45.03;99223.31;5077519;28;20109;-56
2022/07/20 10:01:42;;;;;;;3.17;2.72;;;;;;;28.59;43.27;99223.00;5085042;28;20074;-56
2022/07/20 10:04:09;;;;;;;3.15;2.55;;;;;;;28.54;45.31;99223.50;5084719;28;20101;-57
2022/07/20 10:06:36;;;;;;;3.13;2.67;;;;;;;28.50;45.58;99222.75;5081457;28;20051;-63
2022/07/20 10:09:04;;;;;;;2.97;2.60;;;;;;;28.50;45.55;99220.78;5085732;28;20056;-56
2022/07/20 10:11:30;;;;;;;3.10;2.58;;;;;;;28.50;44.10;99209.53;5083663;28;20040;-63
2022/07/20 10:13:58;;;;;;;3.00;2.60;;;;;;;28.46;44.87;99208.78;5098664;28;20042;-63
2022/07/20 10:16:28;;;;;;;3.00;2.40;;;;;;;28.45;45.33;99207.19;5099425;28;20052;-63
2022/07/20 10:18:54;;;;;;;3.08;2.78;;;;;;;28.45;45.72;99201.56;5101866;28;20066;-57
2022/07/20 10:21:39;;;;;;;2.80;2.42;;;;;;;28.48;45.16;99194.28;5097323;28;20048;-56
2022/07/20 10:24:18;;;;;;;2.55;2.33;;;;;;;28.50;44.19;99186.19;5099174;28;20093;-56
2022/07/20 10:26:45;;;;;;;2.70;2.20;;;;;;;28.47;43.29;99176.59;5101935;28;20121;-56
2022/07/20 10:29:24;;;;;;;2.63;2.17;;;;;;;28.40;44.87;99179.56;5098926;28;20120;-62
2022/07/20 10:31:53;;;;;;;3.50;2.55;;;;;;;28.39;45.28;99172.34;5096600;28;20067;-62
2022/07/20 10:34:33;;;;;;;2.85;2.40;;;;;;;28.38;45.13;99170.78;5096135;28;20037;-56
2022/07/20 10:37:39;;;;;;;2.95;2.55;;;;;;;28.44;44.83;99165.44;5100805;28;20064;-57
2022/07/20 10:40:17;;;;;;;3.42;2.50;;;;;;;28.49;44.57;99162.88;5102138;28;20039;-63
2022/07/20 10:43:04;;;;;;;3.00;2.58;;;;;;;28.54;43.54;99150.34;5098755;28;20079;-63
2022/07/20 10:45:31;;;;;;;2.45;2.20;;;;;;;28.49;44.20;99160.06;5097704;28;20044;-57
2022/07/20 10:48:00;;;;;;;3.08;2.60;;;;;;;28.47;44.57;99159.72;5098379;28;20432;-57
2022/07/20 10:50:37;;;;;;;3.33;2.38;;;;;;;28.48;44.58;99152.06;5099908;28;20055;-56
2022/07/20 10:53:11;;;;;;;2.90;2.33;;;;;;;28.52;44.38;99147.19;5100173;28;20054;-57
2022/07/20 10:55:36;;;;;;;2.92;2.30;;;;;;;28.52;43.29;99147.97;5095709;28;20083;-57
2022/07/20 10:58:13;;;;;;;3.35;2.55;;;;;;;28.49;43.85;99137.56;5101898;28;20478;-57
2022/07/20 11:00:41;;;;;;;3.10;2.45;;;;;;;28.45;44.08;99130.44;5099915;28;20086;-57
2022/07/20 11:03:27;;;;;;;2.92;2.30;;;;;;;28.43;44.07;99125.25;5079519;28;20052;-63
2022/07/20 11:06:12;;;;;;;2.80;2.20;;;;;;;28.49;43.74;99131.16;5093584;28;20054;-63
2022/07/20 11:08:41;;;;;;;3.00;2.38;;;;;;;28.51;42.26;99125.91;5091781;28;20047;-65
2022/07/20 11:11:07;;;;;;;3.67;2.53;;;;;;;28.45;43.74;99117.16;5094210;28;20047;-62
2022/07/20 11:13:33;;;;;;;9.68;3.08;;;;;;;28.49;43.55;99109.44;5100421;28;20126;-58
2022/07/20 11:16:01;;;;;;;3.55;2.30;;;;;;;28.56;42.53;99113.31;5095152;28;20087;-57
2022/07/20 11:18:30;;;;;;;4.25;2.40;;;;;;;28.49;42.57;99117.06;5100446;28;20124;-57
2022/07/20 11:21:09;;;;;;;3.92;2.40;;;;;;;28.43;43.63;99105.56;5098997;28;20068;-63
2022/07/20 11:23:50;;;;;;;3.13;2.47;;;;;;;28.49;43.26;99108.63;5097887;28;20048;-65
2022/07/20 11:26:20;;;;;;;3.38;2.50;;;;;;;28.59;42.67;99101.22;5095614;28;20119;-63
2022/07/20 11:28:55;;;;;;;3.35;2.22;;;;;;;28.44;41.66;99098.72;5095046;28;20055;-64
2022/07/20 11:31:30;;;;;;;2.83;1.95;;;;;;;28.24;40.83;99097.91;5092138;28;20059;-65
2022/07/20 11:33:58;;;;;;;3.45;2.78;;;;;;;28.12;43.17;99096.50;5089584;28;20040;-63
2022/07/20 11:36:32;;;;;;;3.55;2.28;;;;;;;28.00;42.63;99093.56;5095511;28;20566;-67
2022/07/20 11:39:02;;;;;;;3.03;2.15;;;;;;;27.93;41.18;99081.25;5094081;28;20051;-66
2022/07/20 11:41:32;;;;;;;4.25;2.60;;;;;;;27.79;42.83;99067.47;5091493;28;20040;-64